Date,TemperatureHighF,TemperatureAvgF,TemperatureLowF,DewpointHighF,DewpointAvgF,DewpointLowF,HumidityHigh,HumidityAvg,HumidityLow,PressureMaxIn,PressureMinIn,WindSpeedMaxMPH,WindSpeedAvgMPH,GustSpeedMaxMPH,PrecipitationSumIn
2013-4-1,43,33,24,43,33,24,100,100,100,20.00,20.00,21,7,47,0.00
2013-4-2,29,24,20,29,24,20,100,100,100,19.99,19.99,24,12,46,0.00
2013-4-3,22,21,20,22,21,20,100,100,100,19.99,19.99,20,11,30,0.00
2013-4-4,44,33,21,44,33,21,100,100,100,19.99,19.99,13,6,21,0.00
2013-4-5,47,36,28,47,36,28,100,100,100,19.99,19.99,13,4,20,0.00
2013-4-6,36,28,20,36,28,20,100,100,100,19.99,19.99,16,6,27,0.00
2013-4-7,51,37,26,51,37,26,100,100,100,19.99,19.99,29,4,30,0.00
2013-4-8,52,44,37,52,44,37,100,100,100,19.99,19.99,16,4,21,0.00
2013-4-9,56,46,39,56,46,39,100,100,100,20.00,20.00,12,4,26,0.00
2013-4-10,48,43,39,48,43,39,100,100,100,19.99,19.99,5,2,12,0.00
2013-4-11,39,38,37,39,38,37,100,100,100,19.99,19.99,3,2,7,0.00
2013-4-12,30,28,25,30,28,25,100,100,100,19.99,19.99,5,2,23,0.00
2013-4-13,44,35,28,44,35,28,100,100,100,19.99,19.99,12,2,20,0.00
2013-4-14,40,36,31,40,36,31,100,100,100,19.99,19.99,22,7,26,0.00
2013-4-15,54,42,29,54,42,29,100,100,100,19.99,19.99,8,2,15,0.00
2013-4-16,56,47,36,56,47,36,100,100,100,19.99,19.99,20,6,31,0.00
2013-4-17,54,46,38,54,46,38,100,100,100,19.99,19.99,13,4,31,0.00
2013-4-18,39,37,36,39,37,36,100,100,100,20.00,19.99,2,1,5,0.00
2013-4-19,66,56,46,66,56,46,100,100,100,19.99,19.99,18,5,53,0.00
2013-4-20,47,39,31,47,39,31,100,100,100,20.00,19.99,25,10,36,0.00
2013-4-21,30,29,27,30,29,27,100,100,100,19.99,19.99,11,6,26,0.00
2013-4-22,49,38,29,49,38,29,100,100,100,19.99,19.99,18,3,27,0.00
2013-4-23,31,29,28,31,29,28,100,100,100,20.00,19.99,3,1,9,0.00
2013-4-24,71,53,35,71,53,35,100,100,100,19.99,19.99,14,3,19,0.00
2013-4-25,55,48,40,55,48,40,100,100,100,19.99,19.99,29,11,46,0.00
2013-4-26,39,37,35,39,37,35,100,100,100,20.00,20.00,1,0,5,0.00
2013-4-27,59,48,36,59,48,36,100,100,100,19.99,19.99,15,3,18,0.00
2013-4-28,65,54,42,65,54,42,100,100,100,20.00,19.99,7,2,16,0.00
2013-4-29,62,52,43,62,52,43,100,100,100,20.00,19.99,14,3,25,0.00
2013-4-30,66,57,46,66,57,46,100,100,100,19.99,19.99,8,1,18,0.00